createdAt,value
2022-08-12T00:00:08.902Z,18.07
2022-08-12T00:02:54.663Z,18.04
2022-08-12T00:05:58.292Z,18.03
2022-08-12T00:08:45.997Z,18.03
2022-08-12T00:11:32.893Z,18.05
2022-08-12T00:14:18.141Z,18.01
2022-08-12T00:17:03.862Z,17.95
2022-08-12T00:19:49.138Z,17.84
2022-08-12T00:22:34.502Z,17.73
2022-08-12T00:25:21.922Z,17.62
2022-08-12T00:28:27.424Z,17.50
2022-08-12T00:31:13.238Z,17.37
2022-08-12T00:33:58.791Z,17.27
2022-08-12T00:36:50.197Z,17.18
2022-08-12T00:39:36.318Z,17.19
2022-08-12T00:42:13.103Z,17.08
2022-08-12T00:44:45.508Z,17.07
2022-08-12T00:47:25.089Z,17.06
2022-08-12T00:49:54.067Z,16.99
2022-08-12T00:52:22.217Z,16.97
2022-08-12T00:54:57.132Z,17.00
2022-08-12T00:57:27.223Z,17.00
2022-08-12T00:59:58.092Z,17.05
2022-08-12T01:02:31.107Z,17.08
2022-08-12T01:05:19.978Z,17.13
2022-08-12T01:08:06.917Z,17.14
2022-08-12T01:10:55.066Z,17.10
2022-08-12T01:13:22.872Z,17.01
2022-08-12T01:15:52.633Z,16.98
2022-08-12T01:18:21.315Z,16.88
2022-08-12T01:21:12.042Z,16.84
2022-08-12T01:23:44.962Z,16.80
2022-08-12T01:26:17.509Z,16.71
2022-08-12T01:28:47.847Z,16.60
2022-08-12T01:31:20.080Z,16.56
2022-08-12T01:34:35.936Z,16.61
2022-08-12T01:37:02.360Z,16.58
2022-08-12T01:40:35.259Z,16.65
2022-08-12T01:42:50.467Z,16.63
2022-08-12T01:45:22.973Z,16.63
2022-08-12T01:48:19.015Z,16.62
2022-08-12T01:50:55.031Z,16.54
2022-08-12T01:53:50.314Z,16.50
2022-08-12T01:56:19.022Z,16.58
2022-08-12T01:59:05.250Z,16.58
2022-08-12T02:01:39.476Z,16.57
2022-08-12T02:04:53.237Z,16.60
2022-08-12T02:07:57.293Z,16.58
2022-08-12T02:11:11.332Z,16.56
2022-08-12T02:13:53.941Z,16.56
2022-08-12T02:16:36.355Z,16.53
2022-08-12T02:19:23.011Z,16.51
2022-08-12T02:22:38.978Z,16.47
2022-08-12T02:25:10.964Z,16.41
2022-08-12T02:27:46.816Z,16.37
2022-08-12T02:30:19.325Z,16.37
2022-08-12T02:32:48.106Z,16.35
2022-08-12T02:35:24.246Z,16.29
2022-08-12T02:37:53.826Z,16.24
2022-08-12T02:40:22.842Z,16.25
2022-08-12T02:42:55.330Z,16.22
2022-08-12T02:45:33.242Z,16.16
2022-08-12T02:48:06.620Z,16.16
2022-08-12T02:50:39.758Z,16.19
2022-08-12T02:53:07.767Z,16.21
2022-08-12T02:55:36.694Z,16.25
2022-08-12T02:58:12.121Z,16.27
2022-08-12T03:00:40.371Z,16.27
2022-08-12T03:03:10.179Z,16.31
2022-08-12T03:05:45.163Z,16.34
2022-08-12T03:08:31.455Z,16.30
2022-08-12T03:11:27.481Z,16.25
2022-08-12T03:14:03.788Z,16.21
2022-08-12T03:16:33.166Z,16.19
2022-08-12T03:19:00.630Z,16.16
2022-08-12T03:21:56.507Z,16.11
2022-08-12T03:24:17.332Z,16.13
2022-08-12T03:26:45.462Z,16.04
2022-08-12T03:29:12.629Z,15.99
2022-08-12T03:31:39.270Z,15.97
2022-08-12T03:34:09.033Z,15.94
2022-08-12T03:36:39.531Z,15.95
2022-08-12T03:39:17.167Z,15.90
2022-08-12T03:41:58.138Z,15.90
2022-08-12T03:44:50.770Z,15.87
2022-08-12T03:48:10.730Z,15.91
2022-08-12T03:50:59.113Z,15.92
2022-08-12T03:53:47.521Z,15.93
2022-08-12T03:56:33.332Z,15.95
2022-08-12T03:59:20.413Z,15.89
2022-08-12T04:01:57.370Z,15.86
2022-08-12T04:04:34.722Z,15.84
2022-08-12T04:07:03.962Z,15.87
2022-08-12T04:09:30.880Z,15.83
2022-08-12T04:12:16.345Z,15.76
2022-08-12T04:14:43.151Z,15.77
2022-08-12T04:17:10.037Z,15.75
2022-08-12T04:19:37.375Z,15.77
2022-08-12T04:22:04.247Z,15.80
2022-08-12T04:24:36.009Z,15.76
2022-08-12T04:27:08.964Z,15.69
2022-08-12T04:30:30.689Z,15.68
2022-08-12T04:32:27.173Z,15.72
2022-08-12T04:34:54.626Z,15.71
2022-08-12T04:37:21.416Z,15.75
2022-08-12T04:39:48.933Z,15.70
2022-08-12T04:42:16.222Z,15.67
2022-08-12T04:44:44.493Z,15.64
2022-08-12T04:47:14.321Z,15.61
2022-08-12T04:49:43.239Z,15.59
2022-08-12T04:52:10.710Z,15.58
2022-08-12T04:54:37.954Z,15.58
2022-08-12T04:57:06.024Z,15.57
2022-08-12T04:59:47.366Z,15.66
2022-08-12T05:02:20.884Z,15.72
2022-08-12T05:04:52.041Z,15.81
2022-08-12T05:07:20.144Z,15.90
2022-08-12T05:09:59.126Z,16.03
2022-08-12T05:12:37.531Z,16.14
2022-08-12T05:15:12.785Z,16.17
2022-08-12T05:17:53.422Z,16.16
2022-08-12T05:20:21.546Z,16.22
2022-08-12T05:22:50.040Z,16.33
2022-08-12T05:25:20.269Z,16.45
2022-08-12T05:27:57.854Z,16.62
2022-08-12T05:30:27.643Z,16.85
2022-08-12T05:33:00.082Z,16.98
2022-08-12T05:35:27.840Z,17.07
2022-08-12T05:38:14.782Z,17.23
2022-08-12T05:40:41.974Z,17.41
2022-08-12T05:43:08.973Z,17.54
2022-08-12T05:45:35.849Z,17.71
2022-08-12T05:48:02.907Z,17.84
2022-08-12T05:50:29.732Z,17.90
2022-08-12T05:52:56.401Z,18.11
2022-08-12T05:55:26.981Z,18.26
2022-08-12T05:57:57.200Z,18.37
2022-08-12T06:00:25.900Z,18.51
2022-08-12T06:03:01.380Z,18.58
2022-08-12T06:05:53.236Z,18.81
2022-08-12T06:08:23.099Z,19.20
2022-08-12T06:10:50.286Z,19.32
2022-08-12T06:13:28.008Z,19.22
2022-08-12T06:16:09.841Z,19.24
2022-08-12T06:18:40.387Z,19.39
2022-08-12T06:21:08.983Z,19.45
2022-08-12T06:23:40.547Z,19.43
2022-08-12T06:26:12.605Z,19.73
2022-08-12T06:28:40.170Z,20.09
2022-08-12T06:31:26.094Z,20.43
2022-08-12T06:34:01.173Z,20.72
2022-08-12T06:36:42.888Z,20.76
2022-08-12T06:39:15.015Z,20.84
2022-08-12T06:42:02.482Z,20.95
2022-08-12T06:44:48.586Z,21.10
2022-08-12T06:47:16.898Z,21.28
2022-08-12T06:49:44.526Z,21.33
2022-08-12T06:52:11.420Z,21.35
2022-08-12T06:54:38.078Z,21.36
2022-08-12T06:58:06.891Z,21.49
2022-08-12T06:59:51.434Z,21.78
2022-08-12T07:02:21.091Z,21.82
2022-08-12T07:04:47.784Z,21.79
2022-08-12T07:07:14.906Z,21.73
2022-08-12T07:10:05.371Z,21.39
2022-08-12T07:12:29.815Z,21.35
2022-08-12T07:14:58.475Z,21.31
2022-08-12T07:17:26.419Z,21.62
2022-08-12T07:19:53.952Z,21.98
2022-08-12T07:22:23.330Z,22.10
2022-08-12T07:25:10.184Z,22.56
2022-08-12T07:27:42.678Z,22.83
2022-08-12T07:30:10.390Z,22.95
2022-08-12T07:32:37.611Z,22.80
2022-08-12T07:35:04.713Z,22.75
2022-08-12T07:37:31.604Z,22.78
2022-08-12T07:40:00.521Z,22.82
2022-08-12T07:42:28.612Z,22.50
2022-08-12T07:44:56.386Z,22.72
2022-08-12T07:47:24.084Z,22.94
2022-08-12T07:50:05.148Z,23.25
2022-08-12T07:52:44.137Z,23.27
2022-08-12T07:55:12.063Z,22.70
2022-08-12T07:57:54.207Z,22.48
2022-08-12T08:00:21.420Z,22.74
2022-08-12T08:02:49.347Z,22.86
2022-08-12T08:05:16.351Z,23.07
2022-08-12T08:07:43.009Z,23.41
2022-08-12T08:10:11.610Z,23.76
2022-08-12T08:12:53.737Z,23.79
2022-08-12T08:15:44.640Z,23.29
2022-08-12T08:18:26.040Z,23.25
2022-08-12T08:20:56.039Z,23.34
2022-08-12T08:23:34.855Z,23.41
2022-08-12T08:26:01.962Z,24.01
2022-08-12T08:28:29.334Z,24.08
2022-08-12T08:30:56.007Z,24.09
2022-08-12T08:34:09.571Z,24.03
2022-08-12T08:36:16.590Z,24.22
2022-08-12T08:38:53.301Z,24.72
2022-08-12T08:42:16.030Z,24.54
2022-08-12T08:44:31.603Z,24.23
2022-08-12T08:46:58.549Z,24.24
2022-08-12T08:49:25.764Z,24.21
2022-08-12T08:51:52.481Z,24.14
2022-08-12T08:54:19.099Z,24.14
2022-08-12T08:56:50.043Z,24.13
2022-08-12T08:59:19.372Z,24.10
2022-08-12T09:01:47.210Z,24.71
2022-08-12T09:05:09.197Z,25.05
2022-08-12T09:07:17.421Z,24.77
2022-08-12T09:10:02.463Z,24.85
2022-08-12T09:12:54.240Z,24.95
2022-08-12T09:15:23.423Z,25.34
2022-08-12T09:18:08.354Z,24.76
2022-08-12T09:20:36.491Z,24.36
2022-08-12T09:23:59.154Z,24.50
2022-08-12T09:25:58.314Z,24.87
2022-08-12T09:28:32.903Z,25.06
2022-08-12T09:31:01.081Z,25.52
2022-08-12T09:34:29.554Z,26.19
2022-08-12T09:36:30.674Z,26.66
2022-08-12T09:40:07.902Z,26.34
2022-08-12T09:42:43.050Z,26.18
2022-08-12T09:45:23.319Z,25.85
2022-08-12T09:47:59.642Z,25.65
2022-08-12T09:50:27.541Z,25.71
2022-08-12T09:53:15.261Z,25.82
2022-08-12T09:56:56.713Z,25.41
2022-08-12T09:58:58.968Z,25.52
2022-08-12T10:01:24.423Z,25.63
2022-08-12T10:04:02.968Z,25.48
2022-08-12T10:06:35.945Z,25.56
2022-08-12T10:09:08.653Z,25.72
2022-08-12T10:12:10.020Z,26.49
2022-08-12T10:14:38.011Z,26.71
2022-08-12T10:17:08.983Z,26.40
2022-08-12T10:19:37.874Z,26.02
2022-08-12T10:22:16.514Z,26.65
2022-08-12T10:24:43.420Z,26.24
2022-08-12T10:27:39.250Z,26.08
2022-08-12T10:30:41.523Z,26.04
2022-08-12T10:33:00.221Z,25.80
2022-08-12T10:35:38.178Z,26.02
2022-08-12T10:38:38.853Z,26.00
2022-08-12T10:41:12.187Z,25.75
2022-08-12T10:43:54.191Z,25.91
2022-08-12T10:46:24.072Z,26.71
2022-08-12T10:49:06.687Z,27.27
2022-08-12T10:52:03.593Z,27.10
2022-08-12T10:54:32.622Z,26.93
2022-08-12T10:57:02.958Z,27.21
2022-08-12T11:00:01.455Z,27.27
2022-08-12T11:04:27.483Z,27.34
2022-08-12T11:07:06.649Z,27.63
2022-08-12T11:08:38.193Z,27.82
2022-08-12T11:10:38.212Z,28.11
2022-08-12T11:13:09.280Z,28.76
2022-08-12T11:16:04.267Z,29.04
2022-08-12T11:18:23.986Z,29.38
2022-08-12T11:20:52.095Z,29.25
2022-08-12T11:23:25.361Z,29.15
2022-08-12T11:26:05.908Z,29.31
2022-08-12T11:28:33.849Z,28.60
2022-08-12T11:31:03.713Z,27.99
2022-08-12T11:34:05.822Z,27.35
2022-08-12T11:36:17.929Z,27.32
2022-08-12T11:38:50.801Z,27.88
2022-08-12T11:41:31.822Z,27.48
2022-08-12T11:44:02.012Z,28.03
2022-08-12T11:46:50.978Z,27.77
2022-08-12T11:49:30.745Z,28.20
2022-08-12T11:52:03.745Z,27.84
2022-08-12T11:54:31.623Z,27.96
2022-08-12T11:57:00.521Z,27.74
2022-08-12T12:02:20.641Z,26.98
2022-08-12T12:04:52.250Z,27.73
2022-08-12T12:07:22.631Z,28.14
2022-08-12T12:10:00.311Z,28.17
2022-08-12T12:12:26.963Z,28.83
2022-08-12T12:14:54.650Z,28.79
2022-08-12T12:17:24.034Z,29.02
2022-08-12T12:19:53.083Z,29.16
2022-08-12T12:22:23.643Z,28.67
2022-08-12T12:24:58.963Z,27.91
2022-08-12T12:28:04.322Z,27.54
2022-08-12T12:30:33.491Z,27.28
2022-08-12T12:33:01.038Z,27.56
2022-08-12T12:36:18.460Z,27.86
2022-08-12T12:38:16.147Z,28.56
2022-08-12T12:40:50.491Z,28.73
2022-08-12T12:43:28.923Z,27.96
2022-08-12T12:46:05.891Z,27.81
2022-08-12T12:48:33.092Z,28.10
2022-08-12T12:51:49.007Z,28.08
2022-08-12T12:54:08.229Z,27.33
2022-08-12T12:56:41.942Z,26.73
2022-08-12T12:59:54.818Z,26.37
2022-08-12T13:01:56.078Z,26.40
2022-08-12T13:04:24.721Z,25.90
2022-08-12T13:06:52.347Z,25.86
2022-08-12T13:09:22.090Z,25.79
2022-08-12T13:11:53.444Z,25.63
2022-08-12T13:14:28.101Z,25.95
2022-08-12T13:16:57.464Z,26.20
2022-08-12T13:19:37.651Z,26.43
2022-08-12T13:22:20.110Z,27.54
2022-08-12T13:24:55.541Z,28.01
2022-08-12T13:27:49.074Z,27.27
2022-08-12T13:30:23.667Z,27.44
2022-08-12T13:32:57.510Z,27.66
2022-08-12T13:36:05.537Z,27.81
2022-08-12T13:38:43.819Z,27.86
2022-08-12T13:41:34.306Z,27.44
2022-08-12T13:44:03.915Z,26.71
2022-08-12T13:46:30.584Z,26.13
2022-08-12T13:48:57.694Z,25.69
2022-08-12T13:51:25.100Z,25.37
2022-08-12T13:54:11.628Z,25.73
2022-08-12T13:56:40.769Z,26.66
2022-08-12T13:59:11.759Z,27.23
2022-08-12T14:01:40.487Z,27.76
2022-08-12T14:04:12.048Z,28.05
2022-08-12T14:06:39.774Z,27.56
2022-08-12T14:09:17.885Z,26.84
2022-08-12T14:11:58.468Z,26.44
2022-08-12T14:14:26.630Z,26.14
2022-08-12T14:16:53.643Z,26.10
2022-08-12T14:19:24.302Z,26.01
2022-08-12T14:22:00.688Z,25.89
2022-08-12T14:24:35.606Z,26.06
2022-08-12T14:27:03.770Z,26.75
2022-08-12T14:29:38.084Z,27.39
2022-08-12T14:32:23.587Z,27.67
2022-08-12T14:34:51.647Z,27.53
2022-08-12T14:37:57.413Z,27.46
2022-08-12T14:40:07.075Z,27.64
2022-08-12T14:42:33.720Z,27.42
2022-08-12T14:45:02.203Z,26.99
2022-08-12T14:47:35.088Z,26.45
2022-08-12T14:50:58.280Z,26.27
2022-08-12T14:58:32.131Z,26.67
2022-08-12T15:01:21.200Z,26.99
2022-08-12T15:03:56.998Z,27.21
2022-08-12T15:06:43.555Z,27.04
2022-08-12T15:09:16.011Z,26.82
2022-08-12T15:11:54.321Z,26.39
2022-08-12T15:14:25.611Z,25.88
2022-08-12T15:16:53.729Z,25.61
2022-08-12T15:20:11.547Z,25.42
2022-08-12T15:22:37.939Z,25.46
2022-08-12T15:24:54.062Z,25.85
2022-08-12T15:27:22.247Z,26.02
2022-08-12T15:29:58.140Z,25.99
2022-08-12T15:32:32.183Z,26.01
2022-08-12T15:35:02.697Z,26.05
2022-08-12T15:38:08.202Z,26.04
2022-08-12T15:40:30.105Z,25.86
2022-08-12T15:43:01.195Z,25.64
2022-08-12T15:45:32.158Z,25.58
2022-08-12T15:48:16.619Z,25.71
2022-08-12T15:50:52.824Z,25.86
2022-08-12T15:53:40.533Z,25.90
2022-08-12T15:56:12.505Z,25.68
2022-08-12T15:58:43.933Z,25.80
2022-08-12T16:01:16.393Z,25.50
2022-08-12T16:04:00.370Z,25.35
2022-08-12T16:06:50.928Z,25.43
2022-08-12T16:09:21.583Z,25.39
2022-08-12T16:11:48.790Z,25.25
2022-08-12T16:14:16.245Z,24.88
2022-08-12T16:16:43.235Z,24.73
2022-08-12T16:20:04.036Z,24.69
2022-08-12T16:22:07.177Z,24.66
2022-08-12T16:24:43.583Z,24.50
2022-08-12T16:27:10.934Z,24.49
2022-08-12T16:29:53.013Z,24.53
2022-08-12T16:32:23.940Z,24.54
2022-08-12T16:34:55.672Z,24.69
2022-08-12T16:37:32.708Z,24.80
2022-08-12T16:40:11.231Z,24.89
2022-08-12T16:42:54.394Z,24.74
2022-08-12T16:46:04.127Z,24.60
2022-08-12T16:48:35.030Z,24.60
2022-08-12T16:51:09.437Z,24.65
2022-08-12T16:53:44.074Z,24.66
2022-08-12T16:56:14.851Z,24.57
2022-08-12T16:58:42.219Z,24.63
2022-08-12T17:01:14.435Z,24.59
2022-08-12T17:04:08.664Z,24.58
2022-08-12T17:06:36.657Z,24.60
2022-08-12T17:09:08.628Z,24.59
2022-08-12T17:11:44.158Z,24.60
2022-08-12T17:14:10.878Z,24.71
2022-08-12T17:16:40.447Z,24.78
2022-08-12T17:19:08.994Z,24.80
2022-08-12T17:21:40.865Z,24.74
2022-08-12T17:24:16.497Z,24.75
2022-08-12T17:26:49.445Z,24.63
2022-08-12T17:29:32.044Z,24.36
2022-08-12T17:32:10.235Z,24.18
2022-08-12T17:34:56.038Z,23.89
2022-08-12T17:37:22.718Z,23.69
2022-08-12T17:40:12.530Z,23.59
2022-08-12T17:42:42.321Z,23.46
2022-08-12T17:45:18.030Z,23.37
2022-08-12T17:48:04.590Z,23.27
2022-08-12T17:50:38.788Z,23.24
2022-08-12T17:53:08.186Z,23.19
2022-08-12T17:55:47.631Z,23.15
2022-08-12T17:58:17.405Z,23.09
2022-08-12T18:00:45.785Z,23.00
2022-08-12T18:04:04.633Z,22.95
2022-08-12T18:06:13.979Z,22.86
2022-08-12T18:08:55.100Z,22.76
2022-08-12T18:12:06.345Z,22.67
2022-08-12T18:14:31.224Z,22.62
2022-08-12T18:17:00.666Z,22.57
2022-08-12T18:20:04.062Z,22.51
2022-08-12T18:22:17.649Z,22.39
2022-08-12T18:24:50.535Z,22.39
2022-08-12T18:27:46.621Z,22.36
2022-08-12T18:30:20.450Z,22.32
2022-08-12T18:33:03.818Z,22.30
2022-08-12T18:35:46.500Z,22.20
2022-08-12T18:38:19.302Z,22.16
2022-08-12T18:41:07.564Z,22.15
2022-08-12T18:43:58.960Z,22.06
2022-08-12T18:46:48.939Z,21.91
2022-08-12T18:49:32.025Z,21.78
2022-08-12T18:52:04.445Z,21.68
2022-08-12T18:54:35.919Z,21.60
2022-08-12T18:57:16.255Z,21.58
2022-08-12T19:00:01.616Z,21.51
2022-08-12T19:02:36.079Z,21.45
2022-08-12T19:05:09.941Z,21.37
2022-08-12T19:07:49.562Z,21.22
2022-08-12T19:10:25.805Z,21.12
2022-08-12T19:13:18.537Z,21.04
2022-08-12T19:15:58.027Z,20.97
2022-08-12T19:18:30.206Z,20.92
2022-08-12T19:21:06.403Z,20.92
2022-08-12T19:23:39.530Z,20.87
2022-08-12T19:26:10.872Z,20.80
2022-08-12T19:28:40.119Z,20.70
2022-08-12T19:31:56.387Z,20.60
2022-08-12T19:35:53.966Z,20.51
2022-08-12T19:38:03.163Z,20.51
2022-08-12T19:40:31.276Z,20.47
2022-08-12T19:43:19.480Z,20.38
2022-08-12T19:45:53.179Z,20.27
2022-08-12T19:48:23.812Z,20.19
2022-08-12T19:50:53.517Z,20.17
2022-08-12T19:53:23.005Z,20.21
2022-08-12T19:55:55.541Z,20.16
2022-08-12T19:58:23.647Z,20.15
2022-08-12T20:00:52.892Z,20.05
2022-08-12T20:03:40.217Z,19.94
2022-08-12T20:06:13.458Z,19.91
2022-08-12T20:08:47.925Z,19.87
2022-08-12T20:12:14.576Z,19.66
2022-08-12T20:14:08.061Z,19.53
2022-08-12T20:16:57.777Z,19.41
2022-08-12T20:19:52.315Z,19.37
2022-08-12T20:22:23.350Z,19.40
2022-08-12T20:24:55.111Z,19.44
2022-08-12T20:27:29.531Z,19.35
2022-08-12T20:30:13.626Z,19.32
2022-08-12T20:32:51.375Z,19.31
2022-08-12T20:35:24.267Z,19.27
2022-08-12T20:38:07.009Z,19.29
2022-08-12T20:40:39.049Z,19.25
2022-08-12T20:43:06.658Z,19.11
2022-08-12T20:45:50.406Z,19.11
2022-08-12T20:48:17.859Z,19.10
2022-08-12T20:50:51.845Z,19.07
2022-08-12T20:53:26.549Z,18.98
2022-08-12T20:56:00.486Z,18.92
2022-08-12T20:58:28.288Z,18.91
2022-08-12T21:00:57.516Z,18.91
2022-08-12T21:03:52.345Z,18.93
2022-08-12T21:06:43.461Z,18.91
2022-08-12T21:09:10.642Z,18.91
2022-08-12T21:11:37.748Z,18.91
2022-08-12T21:14:05.031Z,18.96
2022-08-12T21:16:38.869Z,19.00
2022-08-12T21:19:08.095Z,19.02
2022-08-12T21:21:40.362Z,19.08
2022-08-12T21:24:17.946Z,19.04
2022-08-12T21:26:49.789Z,19.05
2022-08-12T21:29:21.342Z,19.01
2022-08-12T21:32:36.697Z,18.98
2022-08-12T21:34:36.312Z,18.95
2022-08-12T21:37:26.992Z,18.98
2022-08-12T21:39:53.495Z,19.00
2022-08-12T21:42:29.325Z,18.95
2022-08-12T21:45:46.408Z,18.83
2022-08-12T21:47:46.553Z,18.83
2022-08-12T21:50:19.787Z,18.72
2022-08-12T21:52:49.045Z,18.66
2022-08-12T21:55:18.280Z,18.67
2022-08-12T21:57:54.599Z,18.60
2022-08-12T22:00:32.303Z,18.51
2022-08-12T22:04:03.795Z,18.40
2022-08-12T22:06:30.846Z,18.33
2022-08-12T22:09:15.666Z,18.27
2022-08-12T22:11:56.934Z,18.22
2022-08-12T22:14:30.084Z,18.09
2022-08-12T22:16:58.491Z,17.99
2022-08-12T22:19:26.684Z,17.89
2022-08-12T22:21:56.284Z,17.81
2022-08-12T22:24:30.112Z,17.87
2022-08-12T22:27:07.953Z,17.87
2022-08-12T22:30:08.518Z,17.86
2022-08-12T22:32:42.047Z,17.85
2022-08-12T22:35:47.665Z,17.83
2022-08-12T22:38:20.032Z,17.85
2022-08-12T22:40:52.232Z,17.79
2022-08-12T22:44:01.210Z,17.77
2022-08-12T22:46:27.320Z,17.68
2022-08-12T22:48:57.301Z,17.63
2022-08-12T22:51:24.467Z,17.62
2022-08-12T22:53:55.336Z,17.56
2022-08-12T22:56:31.011Z,17.50
2022-08-12T22:59:02.621Z,17.42
2022-08-12T23:01:52.333Z,17.33
2022-08-12T23:04:27.977Z,17.20
2022-08-12T23:06:57.336Z,17.18
2022-08-12T23:09:34.743Z,17.14
2022-08-12T23:12:34.744Z,17.06
2022-08-12T23:15:04.807Z,17.07
2022-08-12T23:17:40.642Z,17.11
2022-08-12T23:20:10.980Z,17.13
2022-08-12T23:22:38.736Z,17.06
2022-08-12T23:25:19.068Z,17.03
2022-08-12T23:28:29.614Z,17.01
2022-08-12T23:31:04.808Z,16.90
2022-08-12T23:34:02.431Z,16.83
2022-08-12T23:36:39.253Z,16.87
2022-08-12T23:40:14.167Z,16.92
2022-08-12T23:42:17.700Z,16.91
2022-08-12T23:44:43.833Z,16.87
2022-08-12T23:47:11.214Z,16.88
2022-08-12T23:49:57.329Z,16.84
2022-08-12T23:52:28.558Z,16.87
2022-08-12T23:55:24.955Z,16.86
2022-08-12T23:58:18.118Z,16.76
